createdAt,value
2022-11-27T00:01:20.881Z,13.00
2022-11-27T00:03:50.535Z,14.02
2022-11-27T00:06:21.486Z,12.80
2022-11-27T00:08:50.035Z,12.95
2022-11-27T00:11:20.002Z,12.95
2022-11-27T00:13:48.778Z,13.40
2022-11-27T00:16:17.623Z,14.30
2022-11-27T00:18:45.954Z,13.07
2022-11-27T00:21:17.170Z,12.85
2022-11-27T00:23:45.154Z,12.73
2022-11-27T00:26:13.288Z,14.30
2022-11-27T00:28:41.655Z,13.10
2022-11-27T00:31:15.202Z,11.77
2022-11-27T00:33:43.369Z,11.98
2022-11-27T00:36:12.143Z,12.18
2022-11-27T00:38:42.115Z,11.95
2022-11-27T00:41:11.195Z,11.32
2022-11-27T00:43:44.582Z,11.57
2022-11-27T00:46:13.588Z,11.68
2022-11-27T00:48:41.683Z,12.38
2022-11-27T00:51:13.118Z,11.35
2022-11-27T00:53:43.599Z,11.10
2022-11-27T00:56:15.958Z,11.60
2022-11-27T00:58:44.264Z,11.65
2022-11-27T01:01:18.446Z,10.00
2022-11-27T01:03:47.022Z,10.68
2022-11-27T01:06:15.605Z,11.80
2022-11-27T01:08:45.119Z,11.68
2022-11-27T01:11:15.881Z,11.65
2022-11-27T01:13:44.005Z,11.25
2022-11-27T01:16:13.695Z,11.63
2022-11-27T01:18:44.104Z,12.05
2022-11-27T01:21:13.622Z,11.50
2022-11-27T01:23:41.866Z,12.07
2022-11-27T01:26:12.522Z,12.85
2022-11-27T01:28:41.471Z,11.70
2022-11-27T01:31:12.739Z,11.52
2022-11-27T01:33:41.218Z,11.45
2022-11-27T01:36:11.239Z,11.77
2022-11-27T01:38:39.204Z,11.38
2022-11-27T01:41:10.109Z,11.95
2022-11-27T01:43:42.091Z,11.38
2022-11-27T01:46:36.306Z,11.15
2022-11-27T01:49:26.490Z,11.85
2022-11-27T01:51:58.823Z,9.70
2022-11-27T01:54:29.591Z,11.02
2022-11-27T01:57:02.298Z,11.73
2022-11-27T01:59:31.664Z,10.68
2022-11-27T02:01:59.888Z,9.63
2022-11-27T02:04:27.871Z,10.75
2022-11-27T02:06:58.451Z,9.05
2022-11-27T02:09:26.665Z,10.02
2022-11-27T02:11:59.836Z,9.70
2022-11-27T02:14:36.951Z,10.13
2022-11-27T02:17:14.501Z,10.70
2022-11-27T02:19:56.501Z,11.50
2022-11-27T02:22:40.061Z,10.40
2022-11-27T02:25:14.501Z,10.00
2022-11-27T02:28:03.471Z,9.52
2022-11-27T02:30:40.476Z,8.40
2022-11-27T02:33:12.830Z,10.40
2022-11-27T02:35:45.463Z,10.00
2022-11-27T02:38:17.840Z,10.05
2022-11-27T02:40:53.171Z,9.63
2022-11-27T02:43:26.247Z,9.63
2022-11-27T02:45:57.624Z,10.35
2022-11-27T02:48:32.039Z,8.90
2022-11-27T02:51:00.948Z,9.60
2022-11-27T02:53:33.037Z,10.02
2022-11-27T02:56:04.166Z,10.18
2022-11-27T02:58:32.875Z,9.70
2022-11-27T03:01:03.403Z,8.75
2022-11-27T03:03:35.827Z,9.07
2022-11-27T03:06:10.082Z,8.35
2022-11-27T03:08:42.544Z,10.35
2022-11-27T03:11:12.998Z,9.18
2022-11-27T03:13:43.433Z,9.27
2022-11-27T03:16:17.243Z,10.45
2022-11-27T03:18:56.842Z,9.48
2022-11-27T03:21:29.784Z,10.35
2022-11-27T03:23:59.313Z,9.25
2022-11-27T03:26:27.576Z,11.35
2022-11-27T03:28:57.727Z,10.27
2022-11-27T03:31:27.748Z,9.77
2022-11-27T03:33:55.946Z,9.77
2022-11-27T03:36:24.274Z,9.80
2022-11-27T03:38:54.032Z,8.52
2022-11-27T03:41:32.497Z,9.10
2022-11-27T03:44:10.165Z,9.40
2022-11-27T03:46:51.885Z,9.10
2022-11-27T03:49:28.606Z,8.98
2022-11-27T03:52:04.609Z,9.05
2022-11-27T03:54:43.997Z,8.98
2022-11-27T03:57:18.866Z,9.30
2022-11-27T03:59:50.425Z,9.07
2022-11-27T04:02:31.442Z,8.68
2022-11-27T04:04:59.560Z,9.95
2022-11-27T04:07:27.576Z,8.65
2022-11-27T04:09:55.578Z,8.30
2022-11-27T04:12:23.514Z,9.05
2022-11-27T04:14:51.420Z,8.57
2022-11-27T04:17:20.760Z,8.73
2022-11-27T04:19:48.702Z,9.27
2022-11-27T04:22:16.908Z,8.75
2022-11-27T04:24:44.823Z,8.93
2022-11-27T04:27:12.785Z,8.93
2022-11-27T04:29:40.759Z,8.40
2022-11-27T04:32:08.818Z,8.18
2022-11-27T04:34:38.327Z,8.57
2022-11-27T04:37:06.412Z,9.55
2022-11-27T04:39:34.350Z,8.27
2022-11-27T04:42:02.316Z,8.65
2022-11-27T04:44:31.648Z,9.35
2022-11-27T04:47:00.551Z,7.90
2022-11-27T04:49:28.489Z,9.68
2022-11-27T04:51:57.787Z,8.25
2022-11-27T04:54:26.049Z,8.13
2022-11-27T04:56:54.020Z,7.75
2022-11-27T04:59:23.153Z,8.48
2022-11-27T05:01:51.116Z,8.13
2022-11-27T05:04:19.124Z,8.23
2022-11-27T05:06:47.165Z,8.40
2022-11-27T05:09:18.414Z,7.88
2022-11-27T05:11:46.610Z,7.88
2022-11-27T05:14:18.003Z,8.23
2022-11-27T05:16:47.640Z,8.20
2022-11-27T05:19:16.952Z,8.80
2022-11-27T05:21:45.724Z,8.55
2022-11-27T05:24:15.029Z,8.50
2022-11-27T05:26:44.734Z,8.45
2022-11-27T05:29:12.880Z,8.38
2022-11-27T05:31:41.504Z,8.23
2022-11-27T05:34:10.221Z,7.90
2022-11-27T05:36:38.736Z,7.82
2022-11-27T05:39:08.134Z,8.50
2022-11-27T05:41:37.485Z,8.00
2022-11-27T05:44:07.360Z,10.27
2022-11-27T05:46:35.416Z,10.68
2022-11-27T05:49:03.415Z,10.30
2022-11-27T05:51:31.336Z,11.45
2022-11-27T05:53:59.450Z,10.80
2022-11-27T05:56:27.431Z,11.15
2022-11-27T05:58:55.490Z,9.65
2022-11-27T06:01:26.310Z,10.57
2022-11-27T06:03:59.087Z,11.45
2022-11-27T06:06:27.404Z,10.60
2022-11-27T06:08:55.324Z,9.68
2022-11-27T06:11:23.885Z,9.65
2022-11-27T06:13:52.565Z,9.90
2022-11-27T06:16:21.831Z,10.02
2022-11-27T06:18:52.156Z,8.20
2022-11-27T06:21:21.194Z,9.55
2022-11-27T06:23:49.752Z,8.55
2022-11-27T06:26:19.719Z,8.38
2022-11-27T06:28:48.850Z,8.48
2022-11-27T06:31:18.739Z,7.55
2022-11-27T06:33:47.469Z,7.38
2022-11-27T06:36:17.500Z,7.50
2022-11-27T06:38:46.021Z,7.97
2022-11-27T06:41:16.132Z,8.30
2022-11-27T06:43:44.300Z,8.70
2022-11-27T06:46:15.402Z,7.43
2022-11-27T06:48:43.589Z,9.63
2022-11-27T06:51:14.138Z,9.60
2022-11-27T06:53:43.975Z,9.23
2022-11-27T06:56:13.910Z,10.27
2022-11-27T06:58:42.838Z,11.00
2022-11-27T07:01:13.163Z,11.43
2022-11-27T07:03:42.013Z,10.25
2022-11-27T07:06:12.175Z,8.90
2022-11-27T07:08:40.130Z,9.85
2022-11-27T07:11:12.004Z,9.95
2022-11-27T07:13:39.985Z,9.43
2022-11-27T07:16:10.728Z,8.60
2022-11-27T07:18:41.294Z,10.07
2022-11-27T07:21:09.988Z,9.60
2022-11-27T07:23:38.410Z,8.98
2022-11-27T07:26:08.012Z,9.00
2022-11-27T07:28:37.812Z,9.10
2022-11-27T07:31:06.532Z,10.30
2022-11-27T07:33:34.582Z,14.73
2022-11-27T07:36:05.143Z,16.67
2022-11-27T07:38:33.089Z,19.83
2022-11-27T07:41:01.768Z,11.63
2022-11-27T07:43:29.959Z,13.18
2022-11-27T07:45:59.730Z,11.27
2022-11-27T07:48:27.745Z,10.38
2022-11-27T07:50:55.648Z,10.70
2022-11-27T07:53:23.601Z,8.15
2022-11-27T07:55:51.545Z,7.75
2022-11-27T07:58:19.530Z,6.95
2022-11-27T08:00:48.462Z,9.13
2022-11-27T08:03:17.824Z,10.00
2022-11-27T08:05:45.727Z,8.20
2022-11-27T08:08:13.672Z,7.85
2022-11-27T08:10:42.265Z,8.30
2022-11-27T08:13:10.266Z,11.57
2022-11-27T08:15:38.681Z,7.70
2022-11-27T08:18:06.651Z,8.40
2022-11-27T08:20:36.030Z,6.82
2022-11-27T08:23:04.595Z,7.68
2022-11-27T08:25:33.063Z,10.23
2022-11-27T08:28:00.979Z,8.45
2022-11-27T08:30:28.905Z,9.13
2022-11-27T08:32:56.849Z,9.80
2022-11-27T08:35:24.791Z,7.75
2022-11-27T08:37:54.175Z,7.88
2022-11-27T08:40:22.156Z,9.55
2022-11-27T08:42:50.070Z,11.10
2022-11-27T08:45:18.620Z,11.48
2022-11-27T08:47:46.563Z,8.30
2022-11-27T08:50:14.515Z,14.23
2022-11-27T08:52:42.534Z,11.40
2022-11-27T08:55:11.898Z,12.30
2022-11-27T08:57:39.898Z,10.10
2022-11-27T09:00:09.039Z,9.02
2022-11-27T09:02:36.976Z,6.78
2022-11-27T09:05:06.891Z,6.57
2022-11-27T09:07:34.852Z,6.85
2022-11-27T09:10:02.864Z,6.15
2022-11-27T09:12:32.231Z,7.15
2022-11-27T09:15:00.253Z,6.30
2022-11-27T09:17:28.233Z,6.30
2022-11-27T09:19:56.154Z,6.60
2022-11-27T09:22:24.084Z,5.70
2022-11-27T09:24:52.123Z,6.32
2022-11-27T09:27:20.066Z,6.93
2022-11-27T09:29:49.574Z,6.47
2022-11-27T09:32:18.366Z,6.75
2022-11-27T09:34:46.558Z,7.35
2022-11-27T09:37:14.578Z,6.25
2022-11-27T09:39:42.614Z,6.25
2022-11-27T09:42:18.442Z,7.30
2022-11-27T09:44:51.865Z,8.35
2022-11-27T09:47:28.484Z,7.40
2022-11-27T09:50:00.151Z,6.30
2022-11-27T09:52:35.587Z,7.90
2022-11-27T09:55:10.995Z,6.85
2022-11-27T09:57:42.384Z,6.65
2022-11-27T10:00:18.111Z,7.22
2022-11-27T10:02:46.652Z,5.80
2022-11-27T10:05:19.738Z,8.23
2022-11-27T10:08:08.598Z,8.70
2022-11-27T10:10:44.651Z,8.40
2022-11-27T10:13:27.087Z,7.82
2022-11-27T10:16:01.287Z,7.95
2022-11-27T10:18:37.577Z,6.25
2022-11-27T10:21:14.823Z,7.22
2022-11-27T10:23:48.151Z,7.65
2022-11-27T10:26:20.180Z,8.27
2022-11-27T10:28:57.751Z,6.25
2022-11-27T10:31:36.000Z,7.03
2022-11-27T10:34:08.218Z,7.55
2022-11-27T10:36:41.496Z,7.22
2022-11-27T10:39:16.662Z,5.53
2022-11-27T10:41:52.791Z,5.30
2022-11-27T10:44:29.217Z,5.30
2022-11-27T10:47:02.692Z,7.00
2022-11-27T10:49:30.949Z,5.10
2022-11-27T10:51:58.891Z,4.30
2022-11-27T10:54:31.987Z,3.95
2022-11-27T10:57:15.596Z,4.68
2022-11-27T10:59:49.543Z,3.93
2022-11-27T11:02:33.159Z,5.03
2022-11-27T11:05:51.028Z,4.23
2022-11-27T11:08:17.578Z,4.82
2022-11-27T11:10:55.638Z,3.10
2022-11-27T11:13:27.267Z,4.93
2022-11-27T11:16:01.305Z,4.23
2022-11-27T11:18:33.002Z,2.70
2022-11-27T11:21:02.932Z,3.90
2022-11-27T11:23:34.508Z,4.07
2022-11-27T11:26:11.034Z,2.93
2022-11-27T11:28:47.684Z,3.77
2022-11-27T11:31:19.898Z,3.75
2022-11-27T11:33:56.263Z,4.97
2022-11-27T11:36:24.404Z,4.68
2022-11-27T11:38:53.477Z,5.10
2022-11-27T11:42:16.551Z,7.90
2022-11-27T11:44:51.718Z,6.05
2022-11-27T11:47:22.983Z,6.00
2022-11-27T11:49:57.917Z,6.82
2022-11-27T11:52:42.619Z,5.00
2022-11-27T11:55:23.025Z,5.70
2022-11-27T11:58:21.445Z,5.60
2022-11-27T12:01:25.820Z,5.87
2022-11-27T12:03:52.374Z,5.47
2022-11-27T12:06:38.052Z,5.40
2022-11-27T12:09:27.266Z,5.50
2022-11-27T12:12:02.304Z,6.30
2022-11-27T12:14:42.220Z,4.43
2022-11-27T12:17:25.699Z,5.27
2022-11-27T12:20:15.638Z,5.03
2022-11-27T12:23:19.262Z,5.53
2022-11-27T12:25:54.563Z,3.23
2022-11-27T12:28:42.551Z,5.00
2022-11-27T12:31:21.925Z,4.10
2022-11-27T12:34:01.945Z,4.03
2022-11-27T12:36:47.008Z,4.47
2022-11-27T12:39:26.519Z,4.80
2022-11-27T12:42:04.128Z,5.00
2022-11-27T12:44:45.053Z,8.73
2022-11-27T12:47:19.758Z,4.70
2022-11-27T12:49:51.875Z,5.10
2022-11-27T12:52:23.451Z,3.23
2022-11-27T12:54:58.890Z,5.10
2022-11-27T12:57:35.173Z,4.40
2022-11-27T13:00:07.873Z,4.80
2022-11-27T13:02:40.037Z,4.90
2022-11-27T13:05:12.349Z,4.30
2022-11-27T13:07:45.452Z,4.70
2022-11-27T13:10:23.937Z,7.77
2022-11-27T13:13:02.484Z,5.13
2022-11-27T13:15:35.499Z,5.83
2022-11-27T13:18:12.072Z,4.60
2022-11-27T13:20:42.393Z,4.67
2022-11-27T13:23:10.506Z,5.20
2022-11-27T13:25:44.814Z,5.90
2022-11-27T13:28:24.246Z,6.60
2022-11-27T13:30:54.356Z,5.63
2022-11-27T13:34:02.164Z,5.03
2022-11-27T13:37:10.072Z,4.07
2022-11-27T13:39:53.739Z,3.30
2022-11-27T13:45:38.250Z,3.30
2022-11-27T13:48:27.829Z,3.10
2022-11-27T13:51:01.398Z,3.73
2022-11-27T13:53:39.638Z,3.77
2022-11-27T13:56:18.429Z,3.70
2022-11-27T13:58:51.610Z,7.00
2022-11-27T14:01:28.638Z,7.23
2022-11-27T14:04:15.420Z,5.17
2022-11-27T14:06:46.282Z,4.43
2022-11-27T14:09:15.982Z,4.00
2022-11-27T14:12:17.419Z,3.97
2022-11-27T14:15:06.525Z,5.97
2022-11-27T14:17:41.353Z,5.67
2022-11-27T14:20:29.880Z,5.37
2022-11-27T14:23:14.985Z,9.23
2022-11-27T14:25:43.073Z,7.70
2022-11-27T14:28:16.811Z,7.03
2022-11-27T14:30:50.152Z,6.70
2022-11-27T14:33:21.141Z,6.27
2022-11-27T14:35:50.802Z,7.37
2022-11-27T14:38:18.832Z,7.33
2022-11-27T14:41:31.173Z,7.00
2022-11-27T14:44:19.135Z,9.20
2022-11-27T14:46:49.412Z,11.27
2022-11-27T14:49:19.243Z,7.50
2022-11-27T14:51:47.751Z,9.20
2022-11-27T14:54:23.214Z,7.70
2022-11-27T14:56:51.416Z,7.70
2022-11-27T14:59:21.599Z,8.20
2022-11-27T15:02:02.504Z,7.90
2022-11-27T15:04:35.747Z,7.47
2022-11-27T15:07:07.425Z,7.47
2022-11-27T15:09:36.988Z,10.80
2022-11-27T15:12:15.437Z,11.80
2022-11-27T15:15:08.200Z,9.07
2022-11-27T15:17:40.114Z,10.13
2022-11-27T15:20:16.460Z,10.63
2022-11-27T15:22:50.562Z,10.00
2022-11-27T15:25:35.289Z,9.47
2022-11-27T15:28:03.726Z,13.67
2022-11-27T15:30:31.727Z,13.73
2022-11-27T15:33:01.192Z,18.23
2022-11-27T15:35:32.407Z,20.57
2022-11-27T15:38:09.099Z,18.58
2022-11-27T15:40:39.661Z,12.33
2022-11-27T15:43:12.486Z,11.70
2022-11-27T15:45:41.176Z,13.13
2022-11-27T15:48:16.712Z,11.45
2022-11-27T15:50:50.029Z,9.60
2022-11-27T15:53:19.879Z,9.38
2022-11-27T15:55:47.995Z,11.93
2022-11-27T15:58:16.884Z,11.57
2022-11-27T16:00:44.939Z,10.07
2022-11-27T16:03:14.339Z,11.90
2022-11-27T16:05:48.129Z,12.07
2022-11-27T16:08:16.225Z,10.23
2022-11-27T16:10:44.580Z,10.10
2022-11-27T16:13:12.531Z,10.80
2022-11-27T16:15:40.521Z,12.50
2022-11-27T16:18:08.525Z,10.20
2022-11-27T16:20:37.834Z,13.50
2022-11-27T16:23:05.870Z,10.70
2022-11-27T16:25:33.863Z,11.23
2022-11-27T16:28:03.253Z,11.20
2022-11-27T16:30:31.732Z,58.42
2022-11-27T16:32:59.811Z,21.98
2022-11-27T16:35:27.864Z,14.57
2022-11-27T16:37:57.177Z,11.50
2022-11-27T16:40:25.151Z,15.30
2022-11-27T16:42:53.207Z,13.98
2022-11-27T16:45:21.235Z,10.95
2022-11-27T16:47:49.271Z,9.32
2022-11-27T16:50:17.283Z,8.93
2022-11-27T16:52:47.938Z,10.38
2022-11-27T16:55:20.743Z,10.10
2022-11-27T16:57:48.852Z,9.77
2022-11-27T17:00:18.173Z,11.07
2022-11-27T17:02:46.605Z,11.43
2022-11-27T17:05:14.565Z,10.73
2022-11-27T17:07:42.662Z,9.50
2022-11-27T17:10:11.291Z,10.82
2022-11-27T17:12:40.592Z,9.98
2022-11-27T17:15:09.521Z,11.40
2022-11-27T17:17:40.320Z,10.98
2022-11-27T17:20:09.983Z,11.77
2022-11-27T17:22:38.009Z,13.20
2022-11-27T17:25:06.590Z,14.70
2022-11-27T17:27:34.520Z,14.05
2022-11-27T17:30:39.137Z,12.82
2022-11-27T17:33:13.632Z,13.55
2022-11-27T17:36:00.669Z,18.25
2022-11-27T17:38:36.957Z,14.40
2022-11-27T17:41:07.487Z,15.57
2022-11-27T17:43:36.070Z,14.43
2022-11-27T17:46:23.347Z,14.25
2022-11-27T17:48:57.974Z,13.93
2022-11-27T17:51:29.048Z,12.88
2022-11-27T17:54:02.946Z,13.93
2022-11-27T17:56:35.765Z,14.77
2022-11-27T17:59:09.885Z,16.38
2022-11-27T18:01:39.385Z,18.30
2022-11-27T18:04:10.549Z,20.23
2022-11-27T18:06:41.195Z,16.05
2022-11-27T18:09:09.154Z,20.48
2022-11-27T18:11:37.304Z,16.48
2022-11-27T18:14:05.411Z,17.98
2022-11-27T18:16:35.529Z,17.08
2022-11-27T18:19:06.842Z,18.20
2022-11-27T18:21:35.597Z,15.02
2022-11-27T18:27:07.684Z,22.05
2022-11-27T18:29:37.239Z,19.65
2022-11-27T18:32:05.767Z,15.13
2022-11-27T18:34:35.307Z,12.15
2022-11-27T18:37:03.328Z,15.50
2022-11-27T18:39:31.530Z,11.55
2022-11-27T18:41:59.503Z,12.77
2022-11-27T18:44:27.766Z,15.15
2022-11-27T18:46:58.568Z,15.25
2022-11-27T18:49:27.085Z,11.63
2022-11-27T18:51:56.577Z,16.92
2022-11-27T18:54:27.656Z,12.10
2022-11-27T18:56:58.102Z,15.80
2022-11-27T18:59:29.281Z,13.63
2022-11-27T19:02:03.537Z,15.05
2022-11-27T19:04:34.287Z,15.82
2022-11-27T19:07:16.461Z,17.05
2022-11-27T19:09:53.875Z,16.15
2022-11-27T19:12:28.607Z,15.88
2022-11-27T19:14:59.724Z,15.43
2022-11-27T19:17:32.180Z,15.30
2022-11-27T19:20:06.198Z,15.25
2022-11-27T19:22:35.761Z,15.98
2022-11-27T19:25:03.693Z,15.20
2022-11-27T19:27:31.637Z,15.27
2022-11-27T19:29:59.697Z,19.45
2022-11-27T19:32:27.673Z,19.10
2022-11-27T19:34:55.597Z,19.20
2022-11-27T19:37:34.071Z,16.65
2022-11-27T19:40:05.527Z,14.85
2022-11-27T19:42:33.797Z,18.05
2022-11-27T19:45:05.088Z,17.80
2022-11-27T19:47:33.041Z,15.80
2022-11-27T19:50:00.996Z,17.08
2022-11-27T19:52:29.029Z,15.32
2022-11-27T19:54:57.007Z,13.90
2022-11-27T19:57:26.373Z,16.05
2022-11-27T19:59:54.308Z,17.50
2022-11-27T20:02:22.376Z,15.20
2022-11-27T20:04:50.451Z,14.90
2022-11-27T20:07:18.524Z,13.75
2022-11-27T20:09:46.584Z,15.90
2022-11-27T20:12:15.559Z,15.65
2022-11-27T20:14:44.835Z,16.05
2022-11-27T20:17:12.892Z,14.38
2022-11-27T20:19:41.217Z,15.10
2022-11-27T20:22:10.196Z,15.07
2022-11-27T20:24:53.024Z,14.82
2022-11-27T20:27:27.191Z,15.60
2022-11-27T20:29:59.935Z,15.18
2022-11-27T20:32:28.054Z,16.38
2022-11-27T20:34:56.017Z,14.88
2022-11-27T20:37:23.947Z,13.48
2022-11-27T20:39:51.941Z,14.13
2022-11-27T20:42:22.261Z,13.10
2022-11-27T20:45:04.285Z,12.98
2022-11-27T20:47:32.395Z,14.73
2022-11-27T20:50:00.351Z,14.25
2022-11-27T20:52:28.500Z,17.10
2022-11-27T20:54:57.666Z,13.43
2022-11-27T20:57:25.754Z,13.35
2022-11-27T20:59:54.644Z,12.02
2022-11-27T21:02:24.140Z,11.98
2022-11-27T21:04:52.182Z,13.20
2022-11-27T21:07:20.501Z,13.30
2022-11-27T21:09:48.505Z,13.02
2022-11-27T21:12:16.775Z,12.18
2022-11-27T21:14:45.292Z,13.23
2022-11-27T21:17:13.378Z,13.43
2022-11-27T21:19:42.929Z,11.82
2022-11-27T21:22:11.207Z,12.00
2022-11-27T21:24:39.740Z,11.20
2022-11-27T21:27:08.063Z,10.93
2022-11-27T21:29:36.203Z,10.70
2022-11-27T21:32:04.568Z,12.50
2022-11-27T21:34:32.569Z,11.90
2022-11-27T21:37:01.905Z,12.23
2022-11-27T21:39:30.152Z,13.20
2022-11-27T21:41:58.356Z,12.35
2022-11-27T21:44:26.762Z,11.40
2022-11-27T21:46:54.733Z,11.70
2022-11-27T21:49:22.986Z,13.30
2022-11-27T21:51:52.357Z,11.85
2022-11-27T21:54:22.398Z,12.23
2022-11-27T21:56:52.634Z,10.68
2022-11-27T21:59:20.655Z,12.52
2022-11-27T22:01:48.844Z,10.90
2022-11-27T22:04:16.986Z,11.38
2022-11-27T22:06:45.419Z,10.65
2022-11-27T22:09:15.668Z,11.25
2022-11-27T22:11:46.398Z,10.60
2022-11-27T22:14:16.105Z,11.30
2022-11-27T22:16:46.178Z,11.85
2022-11-27T22:19:15.586Z,10.40
2022-11-27T22:21:44.390Z,11.18
2022-11-27T22:24:18.319Z,9.85
2022-11-27T22:26:48.733Z,10.85
2022-11-27T22:29:17.501Z,10.18
2022-11-27T22:31:45.533Z,11.85
2022-11-27T22:34:13.491Z,11.20
2022-11-27T22:36:41.422Z,12.95
2022-11-27T22:39:09.963Z,14.02
2022-11-27T22:41:40.370Z,11.45
2022-11-27T22:44:12.364Z,11.65
2022-11-27T22:46:42.505Z,12.02
2022-11-27T22:49:12.642Z,11.43
2022-11-27T22:51:40.917Z,12.23
2022-11-27T22:54:11.869Z,12.15
2022-11-27T22:56:40.206Z,12.10
2022-11-27T22:59:32.381Z,12.00
2022-11-27T23:01:57.404Z,12.52
2022-11-27T23:04:25.350Z,12.90
2022-11-27T23:06:53.297Z,13.35
2022-11-27T23:09:21.198Z,13.18
2022-11-27T23:11:49.105Z,13.00
2022-11-27T23:14:18.460Z,13.07
2022-11-27T23:16:46.524Z,11.95
2022-11-27T23:19:14.744Z,13.60
2022-11-27T23:21:42.858Z,13.52
2022-11-27T23:24:13.311Z,12.88
2022-11-27T23:26:41.298Z,13.27
2022-11-27T23:29:09.289Z,14.25
2022-11-27T23:31:39.713Z,12.70
2022-11-27T23:34:13.506Z,12.20
2022-11-27T23:36:41.844Z,13.82
2022-11-27T23:39:12.111Z,15.55
2022-11-27T23:41:40.777Z,12.43
2022-11-27T23:44:09.604Z,13.73
2022-11-27T23:46:38.911Z,13.48
2022-11-27T23:49:06.929Z,13.88
2022-11-27T23:51:35.248Z,15.05
2022-11-27T23:54:06.987Z,13.45
2022-11-27T23:56:35.027Z,12.48
2022-11-27T23:59:03.102Z,12.90
